Orlando, FL

10:59 AM EDT on October 30, 2014 (GMT -0400)
WFTV, Channel 9 | Change Station
CLOSE
Current Station
Personal Weather Station
Location: Orlando, FL
Elevation: 92 ft
Nearby Weather Stations

Elev 92 ft 28.54 °N, 81.37 °W | Updated 11 minutes ago

Mostly Cloudy
Mostly Cloudy
78.1 °F
Feels Like 80 °F
N
1.0
Wind Variable Wind from WSW
Gusts 6.0 mph

Today
High -- | Low -- °F
--% Chance of Precip.
Yesterday
High -- | Low -- °F
Precip. -- in
7:35 AM 6:41 PM
Waxing Crescent, 44% visible
Pressure 30.00 in
Visibility 10.0 miles
Clouds Mostly Cloudy 12000 ft
Heat Index 80 °F
Dew Point 66 °F
Humidity 66%
Rainfall 0.00 in
Snow Depth Not available.
UV 3 out of 12
Pollen 4.90 out of 12
Air Quality Not available.
Flu Activity Not available.
METAR KORL 301453Z 25003KT 10SM BKN120 26/19 A2999 RMK AO2 SLP158 T02560194 50004

More Conditions Fewer Conditions

Pressure 30.00 in
Visibility 10.0 miles
Clouds Mostly Cloudy 12000 ft
Heat Index 80 °F
Dew Point 66 °F
Humidity 66%
Rainfall 0.00 in
Snow Depth Not available.
UV 3 out of 12
Pollen 4.90 out of 12
Air Quality Not available.
Flu Activity Not available.
METAR KORL 301453Z 25003KT 10SM BKN120 26/19 A2999 RMK AO2 SLP158 T02560194 50004

More Conditions Fewer Conditions

10-Day Weather Forecast

Almanac

Astronomy

Oct. 30, 2014 Rise Set
Actual Time
Civil Twilight
Nautical Twilight
Astronomical Twilight
Moon
Length of Visible Light
Length of Day
Tomorrow will be .
, % of the Moon is Illuminated

Today's Extremes

State Highs State Lows

Community

WunderPhotos

Upload Photos

1,766,379 photos uploaded!

WunderBlogs® & News

Nearby

Air Quality

  Air Quality AQ Index Pollutant
Not available.

Snow Depth

Station Depth Elevation

Earthquake Activity

City Distance Mag. Time & Date
Minimum magnitude displayed is 2.5.

Coastal Water Temperatures

Place Temperature

Nearby Weather Stations